sensor_id;sensor_type;location;lat;lon;timestamp;pressure;altitude;pressure_sealevel;temperature
66113;BMP280;52893;52.870;5.822;2022-09-01T19:19:06;102047.78;;;19.18
66113;BMP280;52893;52.870;5.822;2022-09-01T19:21:38;102043.72;;;19.47
66113;BMP280;52893;52.870;5.822;2022-09-01T19:24:09;102045.78;;;19.69
66113;BMP280;52893;52.870;5.822;2022-09-01T19:26:39;102047.78;;;19.88
66113;BMP280;52893;52.870;5.822;2022-09-01T19:29:09;102053.66;;;20.02
66113;BMP280;52893;52.870;5.822;2022-09-01T19:31:40;102049.13;;;20.13
66113;BMP280;52893;52.870;5.822;2022-09-01T19:34:13;102049.72;;;20.22
66113;BMP280;52893;52.870;5.822;2022-09-01T19:36:43;102051.09;;;20.32
66113;BMP280;52893;52.870;5.822;2022-09-01T19:39:13;102063.13;;;20.40
66113;BMP280;52893;52.870;5.822;2022-09-01T19:41:43;102052.50;;;20.42
66113;BMP280;52893;52.870;5.822;2022-09-01T19:44:15;102061.78;;;20.53
66113;BMP280;52893;52.870;5.822;2022-09-01T19:46:47;102062.22;;;20.55
66113;BMP280;52893;52.870;5.822;2022-09-01T19:49:24;102064.97;;;20.55
66113;BMP280;52893;52.870;5.822;2022-09-01T19:51:57;102055.25;;;20.42
66113;BMP280;52893;52.870;5.822;2022-09-01T19:54:34;102069.75;;;20.54
66113;BMP280;52893;52.870;5.822;2022-09-01T19:57:08;102067.34;;;20.53
66113;BMP280;52893;52.870;5.822;2022-09-01T19:59:45;102071.72;;;20.54
66113;BMP280;52893;52.870;5.822;2022-09-01T20:02:22;102058.16;;;20.49
66113;BMP280;52893;52.870;5.822;2022-09-01T20:04:57;102067.63;;;20.48
66113;BMP280;52893;52.870;5.822;2022-09-01T20:07:27;102063.19;;;20.43
66113;BMP280;52893;52.870;5.822;2022-09-01T20:10:02;102069.41;;;20.37
66113;BMP280;52893;52.870;5.822;2022-09-01T20:12:37;102067.22;;;20.26
66113;BMP280;52893;52.870;5.822;2022-09-01T20:15:10;102071.00;;;20.18
66113;BMP280;52893;52.870;5.822;2022-09-01T20:17:48;102071.59;;;20.08
66113;BMP280;52893;52.870;5.822;2022-09-01T20:20:21;102076.09;;;19.97
66113;BMP280;52893;52.870;5.822;2022-09-01T20:22:56;102072.34;;;19.86
66113;BMP280;52893;52.870;5.822;2022-09-01T20:25:28;102075.66;;;19.76
66113;BMP280;52893;52.870;5.822;2022-09-01T20:28:01;102080.59;;;19.67
66113;BMP280;52893;52.870;5.822;2022-09-01T20:30:34;102075.59;;;19.57
66113;BMP280;52893;52.870;5.822;2022-09-01T20:33:09;102073.88;;;19.52
66113;BMP280;52893;52.870;5.822;2022-09-01T20:35:44;102088.47;;;19.49
66113;BMP280;52893;52.870;5.822;2022-09-01T20:38:16;102087.25;;;19.47
66113;BMP280;52893;52.870;5.822;2022-09-01T20:41:07;102084.00;;;19.45
66113;BMP280;52893;52.870;5.822;2022-09-01T20:43:39;102082.38;;;19.44
66113;BMP280;52893;52.870;5.822;2022-09-01T20:46:08;102085.53;;;19.42
66113;BMP280;52893;52.870;5.822;2022-09-01T20:48:38;102083.09;;;19.41
66113;BMP280;52893;52.870;5.822;2022-09-01T20:51:10;102082.25;;;19.37
66113;BMP280;52893;52.870;5.822;2022-09-01T20:54:00;102065.88;;;19.32
66113;BMP280;52893;52.870;5.822;2022-09-01T20:56:36;102079.00;;;19.35
66113;BMP280;52893;52.870;5.822;2022-09-01T20:59:10;102077.41;;;19.34
66113;BMP280;52893;52.870;5.822;2022-09-01T21:01:45;102076.53;;;19.30
66113;BMP280;52893;52.870;5.822;2022-09-01T21:04:27;102078.03;;;19.27
66113;BMP280;52893;52.870;5.822;2022-09-01T21:07:04;102073.16;;;19.20
66113;BMP280;52893;52.870;5.822;2022-09-01T21:09:39;102076.84;;;19.12
66113;BMP280;52893;52.870;5.822;2022-09-01T21:12:18;102080.69;;;19.08
66113;BMP280;52893;52.870;5.822;2022-09-01T21:14:56;102062.84;;;18.90
66113;BMP280;52893;52.870;5.822;2022-09-01T21:17:31;102069.88;;;18.87
66113;BMP280;52893;52.870;5.822;2022-09-01T21:20:08;102074.44;;;18.80
66113;BMP280;52893;52.870;5.822;2022-09-01T21:22:38;102074.13;;;18.69
66113;BMP280;52893;52.870;5.822;2022-09-01T21:25:05;102071.88;;;18.59
66113;BMP280;52893;52.870;5.822;2022-09-01T21:27:36;102070.88;;;18.51
66113;BMP280;52893;52.870;5.822;2022-09-01T21:30:07;102070.31;;;18.46
66113;BMP280;52893;52.870;5.822;2022-09-01T21:32:35;102068.50;;;18.38
66113;BMP280;52893;52.870;5.822;2022-09-01T21:35:05;101977.38;;;17.74
66113;BMP280;52893;52.870;5.822;2022-09-01T21:37:33;102069.81;;;18.28
66113;BMP280;52893;52.870;5.822;2022-09-01T21:40:03;102068.94;;;18.24
66113;BMP280;52893;52.870;5.822;2022-09-01T21:42:32;102069.50;;;18.18
66113;BMP280;52893;52.870;5.822;2022-09-01T21:45:01;102063.88;;;18.14
66113;BMP280;52893;52.870;5.822;2022-09-01T21:47:30;102071.59;;;18.08
66113;BMP280;52893;52.870;5.822;2022-09-01T21:49:57;102057.09;;;17.99
66113;BMP280;52893;52.870;5.822;2022-09-01T21:52:24;102060.81;;;17.91
66113;BMP280;52893;52.870;5.822;2022-09-01T21:54:51;102052.78;;;17.86
66113;BMP280;52893;52.870;5.822;2022-09-01T21:57:20;102060.94;;;17.83
66113;BMP280;52893;52.870;5.822;2022-09-01T21:59:48;102050.94;;;17.78
66113;BMP280;52893;52.870;5.822;2022-09-01T22:02:16;102057.63;;;17.77
66113;BMP280;52893;52.870;5.822;2022-09-01T22:04:45;102054.72;;;17.74
66113;BMP280;52893;52.870;5.822;2022-09-01T22:07:12;102054.28;;;17.72
66113;BMP280;52893;52.870;5.822;2022-09-01T22:09:44;102056.22;;;17.71
66113;BMP280;52893;52.870;5.822;2022-09-01T22:12:12;102059.81;;;17.72
66113;BMP280;52893;52.870;5.822;2022-09-01T22:14:40;102059.34;;;17.70
66113;BMP280;52893;52.870;5.822;2022-09-01T22:17:08;102052.91;;;17.66
66113;BMP280;52893;52.870;5.822;2022-09-01T22:19:35;102052.09;;;17.65
66113;BMP280;52893;52.870;5.822;2022-09-01T22:22:03;102056.38;;;17.63
66113;BMP280;52893;52.870;5.822;2022-09-01T22:24:31;102053.94;;;17.61
66113;BMP280;52893;52.870;5.822;2022-09-01T22:26:58;102049.59;;;17.60
66113;BMP280;52893;52.870;5.822;2022-09-01T22:29:25;102045.19;;;17.59
66113;BMP280;52893;52.870;5.822;2022-09-01T22:31:54;102052.09;;;17.53
66113;BMP280;52893;52.870;5.822;2022-09-01T22:34:21;102044.53;;;17.50
66113;BMP280;52893;52.870;5.822;2022-09-01T22:36:48;102026.91;;;17.42
66113;BMP280;52893;52.870;5.822;2022-09-01T22:39:16;102042.69;;;17.42
66113;BMP280;52893;52.870;5.822;2022-09-01T22:41:44;102039.34;;;17.36
66113;BMP280;52893;52.870;5.822;2022-09-01T22:44:12;102039.34;;;17.36
66113;BMP280;52893;52.870;5.822;2022-09-01T22:46:39;102037.38;;;17.37
66113;BMP280;52893;52.870;5.822;2022-09-01T22:49:09;102032.53;;;17.34
66113;BMP280;52893;52.870;5.822;2022-09-01T22:51:37;102035.88;;;17.27
66113;BMP280;52893;52.870;5.822;2022-09-01T22:54:06;102028.66;;;17.23
66113;BMP280;52893;52.870;5.822;2022-09-01T22:56:36;102034.72;;;17.16
66113;BMP280;52893;52.870;5.822;2022-09-01T22:59:07;102036.09;;;17.10
66113;BMP280;52893;52.870;5.822;2022-09-01T23:01:37;102032.72;;;17.04
66113;BMP280;52893;52.870;5.822;2022-09-01T23:04:10;102031.00;;;17.00
66113;BMP280;52893;52.870;5.822;2022-09-01T23:06:39;102032.38;;;16.94
66113;BMP280;52893;52.870;5.822;2022-09-01T23:09:07;101997.06;;;16.75
66113;BMP280;52893;52.870;5.822;2022-09-01T23:11:34;102015.69;;;16.90
66113;BMP280;52893;52.870;5.822;2022-09-01T23:14:02;102011.56;;;16.84
66113;BMP280;52893;52.870;5.822;2022-09-01T23:16:30;102019.84;;;16.84
66113;BMP280;52893;52.870;5.822;2022-09-01T23:18:58;102019.38;;;16.82
66113;BMP280;52893;52.870;5.822;2022-09-01T23:21:28;102016.13;;;16.80
66113;BMP280;52893;52.870;5.822;2022-09-01T23:23:57;102020.84;;;16.80
66113;BMP280;52893;52.870;5.822;2022-09-01T23:26:25;102010.50;;;16.77
66113;BMP280;52893;52.870;5.822;2022-09-01T23:28:52;102003.25;;;16.72
66113;BMP280;52893;52.870;5.822;2022-09-01T23:31:22;102016.56;;;16.70
66113;BMP280;52893;52.870;5.822;2022-09-01T23:33:49;102006.56;;;16.66
66113;BMP280;52893;52.870;5.822;2022-09-01T23:36:19;102003.69;;;16.62
66113;BMP280;52893;52.870;5.822;2022-09-01T23:38:49;102001.25;;;16.61
66113;BMP280;52893;52.870;5.822;2022-09-01T23:41:19;102002.72;;;16.58
66113;BMP280;52893;52.870;5.822;2022-09-01T23:43:48;102002.72;;;16.58
66113;BMP280;52893;52.870;5.822;2022-09-01T23:46:16;101907.69;;;15.98
66113;BMP280;52893;52.870;5.822;2022-09-01T23:48:44;101993.91;;;16.52
66113;BMP280;52893;52.870;5.822;2022-09-01T23:51:11;101990.97;;;16.49
66113;BMP280;52893;52.870;5.822;2022-09-01T23:53:39;101992.81;;;16.45
66113;BMP280;52893;52.870;5.822;2022-09-01T23:56:10;101993.50;;;16.42
66113;BMP280;52893;52.870;5.822;2022-09-01T23:58:38;101988.66;;;16.39
